Terminal Aerodrome Forecast
Issued by NWS Twin Cities, MN

Home | Current Version | Previous Version | Graphics & Text | Print | Product List | Glossary On
Versions: 1 2 3 4 5 6 7 8 9 10 11 12 13 14 15 16 17 18 19 20 21 22 23 24 25 26
000
FTUS43 KMPX 251458 AAB
TAFMSP
TAF AMD
KMSP 251458Z 2515/2618 04012KT P6SM SCT030 BKN200
     FM251800 05007KT P6SM FEW025 SCT060
     FM252100 VRB03KT P6SM SCT060
     FM260600 17008KT P6SM BKN025 OVC040
     FM261500 24008KT P6SM OVC035=

USA.gov is the U.S. government's official web portal to all federal, state and local government web resources and services.